Time;durP1;ratioP1;P1;durP2;ratioP2;P2;SDS_P1;SDS_P2;PMS_P1;PMS_P2;Temp;Humidity;BMP_temperature;BMP_pressure;BME280_temperature;BME280_humidity;BME280_pressure;Samples;Min_cycle;Max_cycle;Signal;HPM_P1;HPM_P2
2022/11/24 00:01:52;;;;;;;;;;;20.00;65.00;;;;;;4448732;32;19959;-84
2022/11/24 00:04:18;;;;;;;;;;;20.00;65.00;;;;;;4448936;32;20487;-85
2022/11/24 00:06:43;;;;;;;;;;;20.00;65.00;;;;;;4447161;32;20053;-85
2022/11/24 00:09:09;;;;;;;;;;;20.00;64.90;;;;;;4434453;32;19974;-85
2022/11/24 00:11:35;;;;;;;;;;;20.00;64.90;;;;;;4448758;32;19967;-84
2022/11/24 00:14:02;;;;;;;;;;;20.00;65.00;;;;;;4448579;32;19978;-85
2022/11/24 00:16:33;;;;;;;;;;;20.00;64.90;;;;;;4448289;32;19986;-86
2022/11/24 00:18:59;;;;;;;;;;;19.90;65.00;;;;;;4448431;32;19982;-85
2022/11/24 00:21:26;;;;;;;;;;;19.90;65.00;;;;;;4448212;32;19971;-85
2022/11/24 00:23:52;;;;;;;;;;;19.90;65.00;;;;;;4448672;32;20498;-84
2022/11/24 00:26:19;;;;;;;;;;;19.90;64.90;;;;;;4448367;32;19993;-84
2022/11/24 00:28:45;;;;;;;;;;;19.90;65.00;;;;;;4448304;32;19993;-85
2022/11/24 00:31:21;;;;;;;;;;;19.90;65.00;;;;;;4448452;32;19982;-85
2022/11/24 00:33:48;;;;;;;;;;;19.90;65.00;;;;;;4448285;32;19978;-85
2022/11/24 00:36:14;;;;;;;;;;;19.90;65.00;;;;;;4448579;32;19985;-85
2022/11/24 00:38:40;;;;;;;;;;;19.90;65.00;;;;;;4447824;32;20088;-86
2022/11/24 00:41:05;;;;;;;;;;;19.80;64.90;;;;;;4448527;32;19974;-84
2022/11/24 00:43:31;;;;;;;;;;;19.80;65.10;;;;;;4448094;32;20483;-85
2022/11/24 00:45:57;;;;;;;;;;;19.80;65.00;;;;;;4434321;32;20412;-85
2022/11/24 00:48:23;;;;;;;;;;;19.80;65.00;;;;;;4448002;32;20069;-85
2022/11/24 00:51:08;;;;;;;;;;;19.80;65.00;;;;;;4448274;32;20409;-85
2022/11/24 00:53:33;;;;;;;;;;;19.70;64.90;;;;;;4448333;32;20407;-85
2022/11/24 00:55:59;;;;;;;;;;;19.80;65.00;;;;;;4447654;32;19982;-85
2022/11/24 00:58:25;;;;;;;;;;;19.70;64.90;;;;;;4447735;32;20048;-85
2022/11/24 01:00:51;;;;;;;;;;;19.70;64.90;;;;;;4447666;32;19998;-85
2022/11/24 01:03:18;;;;;;;;;;;19.70;64.90;;;;;;4447498;32;19975;-85
2022/11/24 01:05:44;;;;;;;;;;;19.70;64.90;;;;;;4447813;32;20041;-85
2022/11/24 01:08:09;;;;;;;;;;;19.70;64.90;;;;;;4447979;32;20432;-85
2022/11/24 01:10:35;;;;;;;;;;;19.70;65.00;;;;;;4447696;32;20480;-85
2022/11/24 01:13:02;;;;;;;;;;;19.70;64.90;;;;;;4447812;32;20380;-85
2022/11/24 01:15:31;;;;;;;;;;;19.70;64.90;;;;;;4433982;32;20037;-85
2022/11/24 01:17:57;;;;;;;;;;;19.60;64.90;;;;;;4447616;32;19990;-85
2022/11/24 01:20:22;;;;;;;;;;;19.70;64.90;;;;;;4447697;32;20324;-85
2022/11/24 01:22:48;;;;;;;;;;;19.60;64.90;;;;;;4447378;32;19980;-85
2022/11/24 01:25:14;;;;;;;;;;;19.60;64.80;;;;;;4447829;32;19980;-85
2022/11/24 01:27:41;;;;;;;;;;;19.60;64.90;;;;;;4446415;32;20140;-85
2022/11/24 01:30:06;;;;;;;;;;;19.60;64.90;;;;;;4447407;32;19985;-85
2022/11/24 01:32:32;;;;;;;;;;;19.60;64.90;;;;;;4433752;32;20410;-85
2022/11/24 01:34:58;;;;;;;;;;;19.60;64.80;;;;;;4446094;32;19962;-86
2022/11/24 01:37:24;;;;;;;;;;;19.60;64.80;;;;;;4447379;32;19982;-85
2022/11/24 01:39:50;;;;;;;;;;;19.60;64.90;;;;;;4447266;32;20080;-85
2022/11/24 01:42:15;;;;;;;;;;;19.60;64.80;;;;;;4447532;32;20320;-85
2022/11/24 01:44:41;;;;;;;;;;;19.50;64.80;;;;;;4447213;32;20048;-85
2022/11/24 01:47:23;;;;;;;;;;;19.50;64.80;;;;;;4447142;32;19986;-85
2022/11/24 01:49:56;;;;;;;;;;;19.50;64.80;;;;;;4447580;32;19984;-85
2022/11/24 01:52:26;;;;;;;;;;;19.50;64.80;;;;;;4432966;32;20108;-85
2022/11/24 01:54:53;;;;;;;;;;;19.50;64.80;;;;;;4446255;32;20415;-85
2022/11/24 01:57:23;;;;;;;;;;;19.50;64.80;;;;;;4446680;32;19990;-86
2022/11/24 01:59:50;;;;;;;;;;;19.50;64.80;;;;;;4447401;32;20060;-85
2022/11/24 02:02:16;;;;;;;;;;;19.40;64.70;;;;;;4447029;32;19987;-85
2022/11/24 02:04:43;;;;;;;;;;;19.40;64.70;;;;;;4446621;32;19975;-85
2022/11/24 02:07:10;;;;;;;;;;;19.40;64.70;;;;;;4447156;32;19978;-85
2022/11/24 02:09:35;;;;;;;;;;;19.40;64.70;;;;;;4446948;32;20001;-85
2022/11/24 02:12:01;;;;;;;;;;;19.40;64.70;;;;;;4446962;32;20115;-85
2022/11/24 02:14:27;;;;;;;;;;;19.40;64.70;;;;;;4446993;32;20025;-85
2022/11/24 02:16:53;;;;;;;;;;;19.40;64.80;;;;;;4446750;32;19978;-85
2022/11/24 02:19:36;;;;;;;;;;;19.40;64.70;;;;;;4446948;32;19973;-85
2022/11/24 02:22:02;;;;;;;;;;;19.40;64.80;;;;;;4447456;32;20395;-85
2022/11/24 02:24:35;;;;;;;;;;;19.30;64.70;;;;;;4447452;32;20422;-85
2022/11/24 02:27:01;;;;;;;;;;;19.30;64.70;;;;;;4446913;32;20148;-85
2022/11/24 02:29:26;;;;;;;;;;;19.30;64.70;;;;;;4447440;32;19980;-86
2022/11/24 02:31:58;;;;;;;;;;;19.30;65.60;;;;;;4447099;32;19974;-86
2022/11/24 02:34:24;;;;;;;;;;;19.30;64.70;;;;;;4433559;32;19978;-86
2022/11/24 02:36:50;;;;;;;;;;;19.30;64.70;;;;;;4447399;32;20009;-86
2022/11/24 02:39:16;;;;;;;;;;;19.30;64.70;;;;;;4447330;32;19978;-87
2022/11/24 02:41:43;;;;;;;;;;;19.30;64.70;;;;;;4447078;32;19981;-87
2022/11/24 02:44:10;;;;;;;;;;;19.20;64.70;;;;;;4446926;32;19983;-86
2022/11/24 02:46:35;;;;;;;;;;;19.20;64.70;;;;;;4447513;32;19982;-86
2022/11/24 02:49:01;;;;;;;;;;;19.20;64.70;;;;;;4447446;32;19995;-87
2022/11/24 02:51:28;;;;;;;;;;;19.20;64.70;;;;;;4447400;32;19985;-87
2022/11/24 02:53:53;;;;;;;;;;;19.20;64.70;;;;;;4447181;32;20000;-86
2022/11/24 02:56:19;;;;;;;;;;;19.20;64.70;;;;;;4446725;32;20368;-86
2022/11/24 02:58:45;;;;;;;;;;;19.20;64.70;;;;;;4446843;32;19985;-86
2022/11/24 03:01:10;;;;;;;;;;;19.20;64.80;;;;;;4433398;32;20003;-86
2022/11/24 03:03:36;;;;;;;;;;;19.20;64.80;;;;;;4447072;32;20195;-86
2022/11/24 03:06:02;;;;;;;;;;;19.20;64.80;;;;;;4447278;32;19962;-86
2022/11/24 03:08:27;;;;;;;;;;;19.20;64.80;;;;;;4446497;32;20124;-87
2022/11/24 03:10:53;;;;;;;;;;;19.20;64.70;;;;;;4433035;32;19970;-86
2022/11/24 03:13:19;;;;;;;;;;;19.20;64.80;;;;;;4446767;32;20386;-86
2022/11/24 03:15:45;;;;;;;;;;;19.10;64.70;;;;;;4447425;32;20053;-86
2022/11/24 03:18:11;;;;;;;;;;;19.10;64.80;;;;;;4447405;32;19986;-86
2022/11/24 03:20:37;;;;;;;;;;;19.10;64.70;;;;;;4446758;32;19981;-87
2022/11/24 03:23:03;;;;;;;;;;;19.10;64.70;;;;;;4445972;32;20497;-86
2022/11/24 03:25:28;;;;;;;;;;;19.10;64.80;;;;;;4445751;32;20030;-87
2022/11/24 03:27:54;;;;;;;;;;;19.10;64.80;;;;;;4432042;32;19970;-87
2022/11/24 03:30:20;;;;;;;;;;;19.10;64.80;;;;;;4445921;32;20014;-87
2022/11/24 03:32:46;;;;;;;;;;;19.10;64.90;;;;;;4431857;32;20040;-86
2022/11/24 03:35:11;;;;;;;;;;;19.10;64.80;;;;;;4445671;32;20052;-87
2022/11/24 03:37:37;;;;;;;;;;;19.10;64.80;;;;;;4445859;32;19982;-87
2022/11/24 03:40:03;;;;;;;;;;;19.10;64.80;;;;;;4445932;32;20018;-86
2022/11/24 03:42:28;;;;;;;;;;;19.00;64.70;;;;;;4431874;32;19970;-86
2022/11/24 03:44:54;;;;;;;;;;;19.00;64.80;;;;;;4445666;32;19978;-86
2022/11/24 03:47:20;;;;;;;;;;;19.00;64.70;;;;;;4445778;32;20464;-87
2022/11/24 03:49:46;;;;;;;;;;;19.00;64.80;;;;;;4444546;32;20041;-87
2022/11/24 03:52:12;;;;;;;;;;;19.00;64.70;;;;;;4445893;32;20149;-86
2022/11/24 03:54:37;;;;;;;;;;;19.00;64.70;;;;;;4446055;32;20392;-87
2022/11/24 03:57:03;;;;;;;;;;;19.00;64.80;;;;;;4445586;32;19975;-86
2022/11/24 03:59:29;;;;;;;;;;;19.00;64.80;;;;;;4431554;32;20406;-86
2022/11/24 04:01:55;;;;;;;;;;;19.00;64.70;;;;;;4445739;32;20037;-87
2022/11/24 04:04:20;;;;;;;;;;;19.00;64.80;;;;;;4445367;32;20006;-87
2022/11/24 04:06:46;;;;;;;;;;;19.00;64.80;;;;;;4445564;32;20030;-86
2022/11/24 04:09:11;;;;;;;;;;;18.90;64.70;;;;;;4445677;32;20104;-87
2022/11/24 04:14:21;;;;;;;;;;;18.90;64.70;;;;;;4445411;32;20056;-87
2022/11/24 04:16:47;;;;;;;;;;;18.90;64.70;;;;;;4445565;32;20383;-87
2022/11/24 04:19:14;;;;;;;;;;;18.90;64.70;;;;;;4446022;32;19990;-86
2022/11/24 04:21:39;;;;;;;;;;;18.90;64.70;;;;;;4448334;32;20313;-87
2022/11/24 04:24:05;;;;;;;;;;;18.90;64.70;;;;;;4448614;32;19977;-87
2022/11/24 04:26:31;;;;;;;;;;;18.90;64.70;;;;;;4448715;32;20339;-86
2022/11/24 04:28:56;;;;;;;;;;;18.90;64.70;;;;;;4448537;32;19978;-87
2022/11/24 04:31:22;;;;;;;;;;;18.90;64.70;;;;;;4448579;32;20356;-87
2022/11/24 04:33:47;;;;;;;;;;;18.90;64.70;;;;;;4448838;32;20367;-87
2022/11/24 04:36:13;;;;;;;;;;;18.90;64.70;;;;;;4448281;32;19974;-86
2022/11/24 04:38:39;;;;;;;;;;;18.90;64.70;;;;;;4448255;32;20112;-87
2022/11/24 04:41:05;;;;;;;;;;;18.90;64.70;;;;;;4448074;32;20014;-86
2022/11/24 04:43:31;;;;;;;;;;;18.90;64.70;;;;;;4434250;32;20006;-87
2022/11/24 04:46:00;;;;;;;;;;;18.80;64.60;;;;;;4448189;32;19974;-85
2022/11/24 04:48:26;;;;;;;;;;;18.90;64.70;;;;;;4448165;32;19990;-86
2022/11/24 04:50:52;;;;;;;;;;;18.80;64.60;;;;;;4448028;32;19962;-85
2022/11/24 04:53:17;;;;;;;;;;;18.80;64.60;;;;;;4448161;32;19985;-86
2022/11/24 04:55:43;;;;;;;;;;;18.80;64.50;;;;;;4434183;32;19959;-86
2022/11/24 04:58:09;;;;;;;;;;;18.80;64.60;;;;;;4448012;32;19999;-86
2022/11/24 05:00:35;;;;;;;;;;;18.80;64.60;;;;;;4446870;32;19985;-86
2022/11/24 05:03:00;;;;;;;;;;;18.80;64.60;;;;;;4448067;32;20018;-86
2022/11/24 05:05:26;;;;;;;;;;;18.80;64.60;;;;;;4447871;32;20105;-86
2022/11/24 05:07:52;;;;;;;;;;;18.80;64.60;;;;;;4434107;32;20308;-86
2022/11/24 05:10:36;;;;;;;;;;;18.80;64.60;;;;;;4447617;32;20099;-87
2022/11/24 05:13:03;;;;;;;;;;;18.80;64.60;;;;;;4433567;32;19997;-86
2022/11/24 05:15:29;;;;;;;;;;;18.80;64.50;;;;;;4447776;32;19984;-86
2022/11/24 05:17:55;;;;;;;;;;;18.80;64.60;;;;;;4448018;32;19978;-87
2022/11/24 05:20:22;;;;;;;;;;;18.80;64.70;;;;;;4447735;32;19975;-87
2022/11/24 05:22:48;;;;;;;;;;;18.70;64.50;;;;;;4447824;32;19981;-86
2022/11/24 05:25:14;;;;;;;;;;;18.70;64.60;;;;;;4447885;32;20044;-87
2022/11/24 05:27:39;;;;;;;;;;;18.70;64.60;;;;;;4433555;32;20514;-86
2022/11/24 05:30:05;;;;;;;;;;;18.70;64.60;;;;;;4447704;32;19982;-86
2022/11/24 05:32:31;;;;;;;;;;;18.70;64.60;;;;;;4446710;32;20569;-86
2022/11/24 05:34:59;;;;;;;;;;;18.70;64.50;;;;;;4447970;32;19963;-87
2022/11/24 05:37:27;;;;;;;;;;;18.70;64.60;;;;;;4447388;32;20319;-86
2022/11/24 05:39:53;;;;;;;;;;;18.70;64.60;;;;;;4433188;32;19982;-87
2022/11/24 05:45:03;;;;;;;;;;;18.70;65.50;;;;;;4447025;32;19971;-86
2022/11/24 05:47:29;;;;;;;;;;;18.60;64.50;;;;;;4447065;32;19989;-87
2022/11/24 05:49:55;;;;;;;;;;;18.60;64.60;;;;;;4447495;32;19981;-86
2022/11/24 05:52:21;;;;;;;;;;;18.60;64.60;;;;;;4447011;32;19998;-87
2022/11/24 05:54:47;;;;;;;;;;;18.60;64.50;;;;;;4447387;32;20113;-86
2022/11/24 05:57:13;;;;;;;;;;;18.60;64.50;;;;;;4447198;32;20353;-87
2022/11/24 05:59:39;;;;;;;;;;;18.60;64.50;;;;;;4447365;32;20320;-87
2022/11/24 06:02:04;;;;;;;;;;;18.60;64.60;;;;;;4447275;32;19975;-86
2022/11/24 06:04:30;;;;;;;;;;;18.60;64.60;;;;;;4446649;32;19970;-86
2022/11/24 06:06:56;;;;;;;;;;;18.60;64.50;;;;;;4433106;32;19991;-87
2022/11/24 06:09:22;;;;;;;;;;;18.60;64.50;;;;;;4446995;32;20443;-87
2022/11/24 06:11:47;;;;;;;;;;;18.60;64.60;;;;;;4446821;32;20308;-86
2022/11/24 06:14:13;;;;;;;;;;;18.60;64.60;;;;;;4446958;32;20304;-86
2022/11/24 06:16:39;;;;;;;;;;;18.60;64.60;;;;;;4447041;32;19971;-86
2022/11/24 06:19:05;;;;;;;;;;;18.60;64.60;;;;;;4446960;32;19963;-87
2022/11/24 06:21:31;;;;;;;;;;;18.60;64.50;;;;;;4446770;32;20010;-86
2022/11/24 06:23:57;;;;;;;;;;;18.60;64.60;;;;;;4446828;32;19997;-87
2022/11/24 06:26:22;;;;;;;;;;;18.50;64.50;;;;;;4445436;32;19978;-85
2022/11/24 06:28:48;;;;;;;;;;;18.50;64.50;;;;;;4432389;32;20029;-85
2022/11/24 06:31:14;;;;;;;;;;;18.50;64.60;;;;;;4446442;32;19984;-85
2022/11/24 06:33:40;;;;;;;;;;;18.50;64.70;;;;;;4446324;32;19974;-85
2022/11/24 06:36:06;;;;;;;;;;;18.50;64.70;;;;;;4446749;32;19962;-85
2022/11/24 06:38:34;;;;;;;;;;;18.50;65.00;;;;;;4446255;32;20394;-83
2022/11/24 06:41:06;;;;;;;;;;;18.60;65.40;;;;;;4446297;32;20061;-83
2022/11/24 06:43:32;;;;;;;;;;;18.60;65.70;;;;;;4446178;32;20061;-82
2022/11/24 06:45:58;;;;;;;;;;;18.60;65.50;;;;;;4445123;32;20403;-82
2022/11/24 06:48:24;;;;;;;;;;;18.60;65.70;;;;;;4446019;32;19982;-83
2022/11/24 06:50:50;;;;;;;;;;;18.70;65.20;;;;;;4446289;32;19974;-80
2022/11/24 06:53:16;;;;;;;;;;;18.80;64.90;;;;;;4446379;32;19974;-82
2022/11/24 06:55:42;;;;;;;;;;;18.90;64.60;;;;;;4446195;32;19993;-81
2022/11/24 06:58:08;;;;;;;;;;;19.00;64.50;;;;;;4446038;32;19990;-83
2022/11/24 07:00:35;;;;;;;;;;;19.10;64.30;;;;;;4446145;32;19967;-82
2022/11/24 07:03:03;;;;;;;;;;;19.20;64.80;;;;;;4446170;32;20418;-81
2022/11/24 07:05:29;;;;;;;;;;;19.40;63.80;;;;;;4445885;32;19967;-83
2022/11/24 07:07:54;;;;;;;;;;;19.50;63.50;;;;;;4445969;32;20093;-82
2022/11/24 07:10:20;;;;;;;;;;;19.60;63.20;;;;;;4432067;32;20088;-82
2022/11/24 07:13:06;;;;;;;;;;;19.70;63.00;;;;;;4446373;32;19989;-84
2022/11/24 07:15:32;;;;;;;;;;;19.80;62.60;;;;;;4445779;32;20037;-85
2022/11/24 07:17:58;;;;;;;;;;;20.00;62.60;;;;;;4445988;32;20097;-82
2022/11/24 07:20:23;;;;;;;;;;;20.00;62.40;;;;;;4446162;32;20021;-81
2022/11/24 07:22:54;;;;;;;;;;;20.00;62.30;;;;;;4446442;32;19992;-81
2022/11/24 07:25:20;;;;;;;;;;;20.00;62.30;;;;;;4446340;32;19966;-82
2022/11/24 07:27:46;;;;;;;;;;;20.10;62.30;;;;;;4445731;32;20100;-81
2022/11/24 07:30:12;;;;;;;;;;;20.00;62.30;;;;;;4445817;32;20308;-83
2022/11/24 07:32:37;;;;;;;;;;;20.00;62.40;;;;;;4446044;32;20097;-83
2022/11/24 07:35:03;;;;;;;;;;;20.00;62.60;;;;;;4446053;32;19970;-82
2022/11/24 07:37:29;;;;;;;;;;;19.90;62.60;;;;;;4445376;32;19978;-84
2022/11/24 07:39:55;;;;;;;;;;;19.80;62.70;;;;;;4445837;32;20476;-70
2022/11/24 07:42:20;;;;;;;;;;;19.80;62.90;;;;;;4445866;32;19990;-70
2022/11/24 07:44:46;;;;;;;;;;;19.70;62.90;;;;;;4445503;32;20336;-71
2022/11/24 07:47:12;;;;;;;;;;;19.60;62.60;;;;;;4445490;32;20048;-75
2022/11/24 07:49:37;;;;;;;;;;;19.60;62.10;;;;;;4445741;32;19975;-86
2022/11/24 07:52:04;;;;;;;;;;;19.50;62.10;;;;;;4445609;32;19971;-85
2022/11/24 07:54:29;;;;;;;;;;;19.40;62.10;;;;;;4445448;32;19971;-86
2022/11/24 07:56:55;;;;;;;;;;;19.40;62.40;;;;;;4448441;32;20398;-87
2022/11/24 07:59:21;;;;;;;;;;;19.30;62.50;;;;;;4448648;32;20023;-82
2022/11/24 08:01:46;;;;;;;;;;;19.30;62.50;;;;;;4448391;32;20014;-80
2022/11/24 08:04:12;;;;;;;;;;;19.20;62.80;;;;;;4448540;32;20175;-76
2022/11/24 08:06:38;;;;;;;;;;;19.20;62.80;;;;;;4434644;32;20339;-83
2022/11/24 08:09:04;;;;;;;;;;;19.20;62.80;;;;;;4448339;32;20113;-81
2022/11/24 08:11:30;;;;;;;;;;;19.10;62.90;;;;;;4448234;32;19962;-82
2022/11/24 08:13:56;;;;;;;;;;;19.10;62.90;;;;;;4448133;32;20092;-80
2022/11/24 08:16:21;;;;;;;;;;;19.00;62.90;;;;;;4448214;32;20418;-74
2022/11/24 08:18:48;;;;;;;;;;;19.00;62.80;;;;;;4448307;32;20319;-81
2022/11/24 08:21:14;;;;;;;;;;;19.00;63.20;;;;;;4448102;32;20427;-80
2022/11/24 08:23:41;;;;;;;;;;;18.90;63.00;;;;;;4434449;32;19989;-80
2022/11/24 08:26:09;;;;;;;;;;;18.90;63.20;;;;;;4433612;32;19966;-80
2022/11/24 08:28:35;;;;;;;;;;;18.90;63.20;;;;;;4446906;32;19970;-79
2022/11/24 08:31:06;;;;;;;;;;;18.90;63.40;;;;;;4447863;32;20003;-79
2022/11/24 08:33:31;;;;;;;;;;;18.90;63.50;;;;;;4448011;32;20022;-79
2022/11/24 08:36:07;;;;;;;;;;;18.90;63.50;;;;;;4448121;32;19977;-79
2022/11/24 08:38:33;;;;;;;;;;;18.90;63.60;;;;;;4448296;32;20380;-78
2022/11/24 08:41:03;;;;;;;;;;;18.90;63.60;;;;;;4447760;32;20023;-81
2022/11/24 08:43:29;;;;;;;;;;;18.80;63.60;;;;;;4448131;32;20125;-81
2022/11/24 08:45:57;;;;;;;;;;;18.80;63.70;;;;;;4447510;32;19978;-81
2022/11/24 08:48:23;;;;;;;;;;;18.80;63.80;;;;;;4448076;32;20117;-82
2022/11/24 08:50:49;;;;;;;;;;;18.80;63.90;;;;;;4447811;32;19970;-79
2022/11/24 08:53:14;;;;;;;;;;;18.80;63.90;;;;;;4447759;32;20434;-79
2022/11/24 08:55:40;;;;;;;;;;;18.80;64.00;;;;;;4447678;32;19963;-79
2022/11/24 08:58:06;;;;;;;;;;;18.70;64.00;;;;;;4447638;32;19978;-79
2022/11/24 09:00:31;;;;;;;;;;;18.80;64.10;;;;;;4447505;32;20021;-83
2022/11/24 09:02:57;;;;;;;;;;;18.70;64.00;;;;;;4447737;32;19962;-82
2022/11/24 09:05:24;;;;;;;;;;;18.70;64.10;;;;;;4446299;32;20154;-82
2022/11/24 09:07:49;;;;;;;;;;;18.70;64.20;;;;;;4445819;32;20433;-83
2022/11/24 09:10:15;;;;;;;;;;;18.70;64.20;;;;;;4447475;32;19980;-83
2022/11/24 09:12:42;;;;;;;;;;;18.60;64.30;;;;;;4447464;32;20013;-80
2022/11/24 09:15:08;;;;;;;;;;;18.60;64.30;;;;;;4447345;32;20026;-85
2022/11/24 09:17:35;;;;;;;;;;;18.60;64.40;;;;;;4433501;32;20048;-83
2022/11/24 09:20:02;;;;;;;;;;;18.60;64.40;;;;;;4447522;32;20112;-84
2022/11/24 09:22:28;;;;;;;;;;;18.60;64.40;;;;;;4447486;32;19975;-85
2022/11/24 09:24:55;;;;;;;;;;;18.60;64.40;;;;;;4447377;32;19993;-85
2022/11/24 09:27:21;;;;;;;;;;;18.60;65.40;;;;;;4433448;32;20296;-85
2022/11/24 09:29:47;;;;;;;;;;;18.60;64.60;;;;;;4447110;32;20377;-83
2022/11/24 09:32:12;;;;;;;;;;;18.60;64.60;;;;;;4447410;32;19982;-82
2022/11/24 09:34:38;;;;;;;;;;;18.60;64.60;;;;;;4447326;32;19963;-82
2022/11/24 09:37:03;;;;;;;;;;;18.60;64.60;;;;;;4447197;32;20316;-82
2022/11/24 09:39:29;;;;;;;;;;;18.60;64.60;;;;;;4447117;32;19967;-87
2022/11/24 09:42:01;;;;;;;;;;;18.50;64.70;;;;;;4446782;32;20475;-79
2022/11/24 09:44:30;;;;;;;;;;;18.60;64.70;;;;;;4446955;32;20105;-73
2022/11/24 09:47:08;;;;;;;;;;;18.60;64.80;;;;;;4446689;32;19993;-79
2022/11/24 09:49:43;;;;;;;;;;;18.50;64.60;;;;;;4447133;32;19988;-82
2022/11/24 09:52:12;;;;;;;;;;;18.50;64.30;;;;;;4446957;32;19983;-81
2022/11/24 09:54:44;;;;;;;;;;;18.50;64.40;;;;;;4446851;32;19990;-82
2022/11/24 09:57:10;;;;;;;;;;;18.50;64.40;;;;;;4447101;32;19981;-81
2022/11/24 09:59:36;;;;;;;;;;;18.50;64.50;;;;;;4446697;32;19975;-82
2022/11/24 10:02:02;;;;;;;;;;;18.50;64.60;;;;;;4446752;32;20401;-77
2022/11/24 10:04:31;;;;;;;;;;;18.50;64.60;;;;;;4432518;32;19958;-65
2022/11/24 10:07:06;;;;;;;;;;;18.50;64.60;;;;;;4446327;32;19989;-83
2022/11/24 10:09:50;;;;;;;;;;;18.50;64.30;;;;;;4446425;32;20152;-82
2022/11/24 10:12:19;;;;;;;;;;;18.40;64.30;;;;;;4446648;32;19985;-83
2022/11/24 10:15:00;;;;;;;;;;;18.40;64.50;;;;;;4446428;32;19974;-84
2022/11/24 10:17:35;;;;;;;;;;;18.40;64.60;;;;;;4446100;32;19974;-75
2022/11/24 10:20:00;;;;;;;;;;;18.40;64.70;;;;;;4446189;32;19979;-87
2022/11/24 10:22:32;;;;;;;;;;;18.40;64.90;;;;;;4446266;32;20032;-82
2022/11/24 10:25:11;;;;;;;;;;;18.40;64.90;;;;;;4446546;32;19982;-83
2022/11/24 10:27:40;;;;;;;;;;;18.40;65.00;;;;;;4446347;32;20419;-85
2022/11/24 10:30:12;;;;;;;;;;;18.40;65.00;;;;;;4446328;32;20097;-76
2022/11/24 10:32:40;;;;;;;;;;;18.40;65.20;;;;;;4446810;32;19967;-77
2022/11/24 10:35:13;;;;;;;;;;;18.50;65.30;;;;;;4446704;32;20008;-78
2022/11/24 10:37:45;;;;;;;;;;;18.40;65.30;;;;;;4446723;32;19974;-77
2022/11/24 10:40:16;;;;;;;;;;;18.50;65.50;;;;;;4446116;32;19974;-76
2022/11/24 10:42:42;;;;;;;;;;;18.50;65.50;;;;;;4446266;32;20122;-73
2022/11/24 10:45:13;;;;;;;;;;;18.50;65.40;;;;;;4445829;32;19993;-73
2022/11/24 10:47:40;;;;;;;;;;;18.40;65.40;;;;;;4446060;32;20014;-77
2022/11/24 10:50:25;;;;;;;;;;;18.50;65.60;;;;;;4446171;32;19990;-76
2022/11/24 10:52:50;;;;;;;;;;;18.50;65.50;;;;;;4446226;32;19986;-76
2022/11/24 10:55:16;;;;;;;;;;;18.50;65.50;;;;;;4446310;32;20037;-77
2022/11/24 10:57:43;;;;;;;;;;;18.50;65.90;;;;;;4446290;32;20007;-77
2022/11/24 11:00:18;;;;;;;;;;;18.50;65.80;;;;;;4445757;32;20056;-77
2022/11/24 11:02:45;;;;;;;;;;;18.40;65.80;;;;;;4432017;32;19985;-79
2022/11/24 11:05:26;;;;;;;;;;;18.40;65.90;;;;;;4432320;32;19978;-77
2022/11/24 11:08:09;;;;;;;;;;;18.40;65.80;;;;;;4445799;32;20112;-77
2022/11/24 11:10:34;;;;;;;;;;;18.40;66.10;;;;;;4446120;32;20387;-77
2022/11/24 11:13:19;;;;;;;;;;;18.40;65.90;;;;;;4445882;32;20010;-77
2022/11/24 11:15:44;;;;;;;;;;;18.40;66.20;;;;;;4446228;32;20076;-76
2022/11/24 11:18:13;;;;;;;;;;;18.40;66.00;;;;;;4445600;32;20301;-82
2022/11/24 11:20:39;;;;;;;;;;;18.40;66.00;;;;;;4445902;32;20060;-80
2022/11/24 11:23:19;;;;;;;;;;;18.40;66.10;;;;;;4444839;32;19979;-77
2022/11/24 11:25:45;;;;;;;;;;;18.40;66.10;;;;;;4445727;32;19986;-70
2022/11/24 11:28:17;;;;;;;;;;;18.40;66.20;;;;;;4445915;32;19982;-70
2022/11/24 11:30:53;;;;;;;;;;;18.40;66.10;;;;;;4445228;32;20372;-77
2022/11/24 11:33:22;;;;;;;;;;;18.40;66.10;;;;;;4445680;32;19982;-76
2022/11/24 11:35:48;;;;;;;;;;;18.40;66.20;;;;;;4445777;32;20026;-76
2022/11/24 11:38:13;;;;;;;;;;;18.40;66.10;;;;;;4432040;32;20133;-76
2022/11/24 11:40:41;;;;;;;;;;;18.40;66.20;;;;;;4445673;32;19997;-76
2022/11/24 11:43:16;;;;;;;;;;;18.40;66.20;;;;;;4445335;32;19981;-78
2022/11/24 11:45:44;;;;;;;;;;;18.40;66.40;;;;;;4445208;32;20018;-78
2022/11/24 11:48:14;;;;;;;;;;;18.40;66.30;;;;;;4445428;32;20010;-79
2022/11/24 11:50:50;;;;;;;;;;;18.40;66.30;;;;;;4445500;32;19985;-80
2022/11/24 11:53:21;;;;;;;;;;;18.40;66.40;;;;;;4445934;32;20339;-79
2022/11/24 11:56:06;;;;;;;;;;;18.40;66.60;;;;;;4445553;32;19996;-74
2022/11/24 11:58:47;;;;;;;;;;;18.40;66.50;;;;;;4445719;32;20045;-79
2022/11/24 12:01:33;;;;;;;;;;;18.40;66.90;;;;;;4445656;32;20032;-78
2022/11/24 12:04:05;;;;;;;;;;;18.40;66.60;;;;;;4445282;32;19990;-79
2022/11/24 12:06:45;;;;;;;;;;;18.40;66.70;;;;;;4445620;32;20030;-77
2022/11/24 12:09:11;;;;;;;;;;;18.40;66.60;;;;;;4445624;32;20048;-84
2022/11/24 12:11:48;;;;;;;;;;;18.40;66.50;;;;;;4445723;32;19975;-90
2022/11/24 12:14:20;;;;;;;;;;;18.40;66.50;;;;;;4445164;32;19985;-77
2022/11/24 12:17:00;;;;;;;;;;;18.30;66.60;;;;;;4445339;32;20061;-82
2022/11/24 12:19:26;;;;;;;;;;;18.30;66.60;;;;;;4445711;32;20009;-82
2022/11/24 12:22:10;;;;;;;;;;;18.30;66.60;;;;;;4431100;32;20428;-77
2022/11/24 12:24:36;;;;;;;;;;;18.30;66.60;;;;;;4445383;32;20112;-80
2022/11/24 12:27:04;;;;;;;;;;;18.30;66.60;;;;;;4445282;32;20017;-81
2022/11/24 12:29:33;;;;;;;;;;;18.30;66.60;;;;;;4445470;32;20415;-88
2022/11/24 12:32:17;;;;;;;;;;;18.30;66.70;;;;;;4445570;32;19989;-77
2022/11/24 12:34:43;;;;;;;;;;;18.30;66.80;;;;;;4445310;32;20300;-79
2022/11/24 12:37:27;;;;;;;;;;;18.30;66.60;;;;;;4431404;32;20463;-84
2022/11/24 12:40:02;;;;;;;;;;;18.30;66.80;;;;;;4445057;32;19989;-84
2022/11/24 12:42:38;;;;;;;;;;;18.30;66.80;;;;;;4447640;32;20386;-75
2022/11/24 12:45:30;;;;;;;;;;;18.30;66.70;;;;;;4447444;32;19993;-82
2022/11/24 12:47:56;;;;;;;;;;;18.30;67.60;;;;;;4444762;32;19974;-85
2022/11/24 12:50:25;;;;;;;;;;;18.30;66.70;;;;;;4447245;32;20226;-86
2022/11/24 12:52:59;;;;;;;;;;;18.30;66.80;;;;;;4447748;32;20037;-76
2022/11/24 12:55:26;;;;;;;;;;;18.30;66.70;;;;;;4447674;32;19994;-77
2022/11/24 12:58:04;;;;;;;;;;;18.30;66.90;;;;;;4447689;32;20128;-80
2022/11/24 13:00:40;;;;;;;;;;;18.30;66.90;;;;;;4448001;32;20308;-73
2022/11/24 13:03:14;;;;;;;;;;;18.30;67.00;;;;;;4447518;32;19986;-83
2022/11/24 13:06:01;;;;;;;;;;;18.30;66.90;;;;;;4433569;32;20328;-87
2022/11/24 13:08:27;;;;;;;;;;;18.30;66.70;;;;;;4447477;32;20005;-85
2022/11/24 13:10:53;;;;;;;;;;;18.30;66.70;;;;;;4433185;32;19975;-85
2022/11/24 13:13:20;;;;;;;;;;;18.30;66.70;;;;;;4433499;32;20265;-71
2022/11/24 13:15:55;;;;;;;;;;;18.30;66.60;;;;;;4447671;32;20124;-79
2022/11/24 13:18:39;;;;;;;;;;;18.30;66.70;;;;;;4447389;32;19982;-76
2022/11/24 13:21:25;;;;;;;;;;;18.30;66.70;;;;;;4433317;32;19986;-79
2022/11/24 13:23:57;;;;;;;;;;;18.30;66.80;;;;;;4447014;32;20022;-83
2022/11/24 13:26:28;;;;;;;;;;;18.30;66.80;;;;;;4446993;32;19986;-77
2022/11/24 13:29:03;;;;;;;;;;;18.30;66.90;;;;;;4447135;32;19982;-82
2022/11/24 13:31:29;;;;;;;;;;;18.30;66.90;;;;;;4447245;32;20381;-86
2022/11/24 13:33:55;;;;;;;;;;;18.30;66.90;;;;;;4433434;32;19985;-86
2022/11/24 13:36:23;;;;;;;;;;;18.30;66.90;;;;;;4447496;32;19974;-85
2022/11/24 13:38:49;;;;;;;;;;;18.30;67.00;;;;;;4447138;32;19982;-87
2022/11/24 13:41:30;;;;;;;;;;;18.30;66.90;;;;;;4447024;32;19962;-87
2022/11/24 13:44:14;;;;;;;;;;;18.30;67.00;;;;;;4447308;32;19994;-88
2022/11/24 13:46:59;;;;;;;;;;;18.40;67.20;;;;;;4447063;32;20309;-85
2022/11/24 13:49:45;;;;;;;;;;;18.40;67.10;;;;;;4447065;32;19987;-84
2022/11/24 13:52:29;;;;;;;;;;;18.40;67.10;;;;;;4446789;32;19982;-90
2022/11/24 13:54:56;;;;;;;;;;;18.40;67.20;;;;;;4447271;32;20414;-87
2022/11/24 13:57:33;;;;;;;;;;;18.50;67.10;;;;;;4446932;32;20360;-85
2022/11/24 13:59:59;;;;;;;;;;;18.50;66.70;;;;;;4446967;32;20392;-87
2022/11/24 14:02:25;;;;;;;;;;;18.60;66.30;;;;;;4446931;32;20092;-87
2022/11/24 14:04:51;;;;;;;;;;;18.70;65.90;;;;;;4447107;32;20104;-86
2022/11/24 14:07:16;;;;;;;;;;;18.80;65.70;;;;;;4447184;32;20379;-86
2022/11/24 14:09:44;;;;;;;;;;;18.90;65.50;;;;;;4447254;32;19995;-82
2022/11/24 14:12:14;;;;;;;;;;;19.10;65.20;;;;;;4446730;32;19989;-87
2022/11/24 14:14:40;;;;;;;;;;;19.30;64.90;;;;;;4446828;32;20405;-89
2022/11/24 14:17:07;;;;;;;;;;;19.50;64.50;;;;;;4447081;32;19978;-87
2022/11/24 14:19:33;;;;;;;;;;;19.60;64.10;;;;;;4446665;32;20017;-86
2022/11/24 14:21:58;;;;;;;;;;;19.70;63.90;;;;;;4446833;32;19966;-87
2022/11/24 14:24:28;;;;;;;;;;;19.80;63.60;;;;;;4446996;32;20025;-83
2022/11/24 14:26:54;;;;;;;;;;;19.90;63.50;;;;;;4446718;32;20477;-86
2022/11/24 14:29:22;;;;;;;;;;;20.00;63.50;;;;;;4446826;32;19990;-86